createdAt,value
2019-04-23T00:01:25.429Z,29.02
2019-04-23T00:03:29.737Z,28.62
2019-04-23T00:06:06.946Z,29.11
2019-04-23T00:08:37.735Z,30.03
2019-04-23T00:11:08.806Z,30.03
2019-04-23T00:13:38.992Z,30.18
2019-04-23T00:18:42.678Z,30.21
2019-04-23T00:21:23.538Z,30.45
2019-04-23T00:23:57.170Z,30.93
2019-04-23T00:26:34.372Z,31.37
2019-04-23T00:29:18.996Z,31.70
2019-04-23T00:31:57.217Z,31.23
2019-04-23T00:34:26.050Z,32.42
2019-04-23T00:36:53.239Z,32.01
2019-04-23T00:39:23.676Z,32.01
2019-04-23T00:41:58.659Z,32.04
2019-04-23T00:44:32.515Z,31.55
2019-04-23T00:46:55.992Z,31.55
2019-04-23T00:49:30.948Z,31.96
2019-04-23T00:52:05.858Z,31.57
2019-04-23T00:54:32.707Z,32.07
2019-04-23T00:57:07.530Z,32.07
2019-04-23T00:59:39.092Z,32.74
2019-04-23T01:02:02.716Z,32.86
2019-04-23T01:04:40.352Z,33.00
2019-04-23T01:07:09.586Z,33.19
2019-04-23T01:09:45.625Z,33.19
2019-04-23T01:12:15.980Z,33.21
2019-04-23T01:14:38.620Z,32.95
2019-04-23T01:17:22.136Z,33.09
2019-04-23T01:20:06.390Z,33.09
2019-04-23T01:22:08.583Z,33.62
2019-04-23T01:24:46.699Z,34.10
2019-04-23T01:28:00.372Z,34.72
2019-04-23T01:30:17.908Z,35.10
2019-04-23T01:32:43.742Z,35.65
2019-04-23T01:37:58.079Z,34.67
2019-04-23T01:40:19.111Z,35.31
2019-04-23T01:47:57.659Z,34.62
2019-04-23T01:50:38.558Z,34.62
2019-04-23T01:53:05.635Z,34.92
2019-04-23T01:55:26.302Z,35.55
2019-04-23T01:58:18.774Z,35.55
2019-04-23T02:00:39.163Z,36.01
2019-04-23T02:03:01.125Z,35.91
2019-04-23T02:05:35.241Z,36.23
2019-04-23T02:08:11.120Z,36.59
2019-04-23T02:13:16.392Z,36.39
2019-04-23T02:18:15.725Z,36.82
2019-04-23T02:20:55.182Z,36.80
2019-04-23T02:26:10.808Z,37.12
2019-04-23T02:28:49.661Z,37.70
2019-04-23T02:31:43.088Z,37.66
2019-04-23T02:34:18.572Z,37.67
2019-04-23T02:36:11.093Z,37.91
2019-04-23T02:41:26.578Z,38.40
2019-04-23T02:44:04.917Z,38.16
2019-04-23T02:46:17.678Z,37.70
2019-04-23T02:54:15.914Z,38.13
2019-04-23T03:04:14.260Z,37.61
2019-04-23T03:06:41.141Z,38.19
2019-04-23T03:09:27.757Z,37.36
2019-04-23T03:19:47.239Z,38.04
2019-04-23T03:45:20.893Z,38.74
2019-04-23T03:57:40.260Z,39.26
2019-04-23T04:05:24.555Z,39.54
2019-04-23T04:08:04.514Z,40.01
2019-04-23T04:10:16.646Z,39.11
2019-04-23T04:13:06.691Z,39.13
2019-04-23T04:20:35.905Z,40.30
2019-04-23T04:23:10.683Z,39.04
2019-04-23T04:25:33.668Z,40.58
2019-04-23T04:30:41.004Z,40.91
2019-04-23T04:33:41.339Z,40.78
2019-04-23T04:35:57.889Z,41.23
2019-04-23T04:51:34.345Z,41.77
2019-04-23T04:56:16.754Z,41.54
2019-04-23T05:01:13.868Z,41.15
2019-04-23T05:03:36.588Z,41.19
2019-04-23T05:06:24.689Z,40.79
2019-04-23T05:16:24.310Z,40.82
2019-04-23T05:18:58.069Z,40.16
2019-04-23T05:21:26.924Z,39.75
2019-04-23T05:23:54.096Z,39.76
2019-04-23T05:26:26.497Z,39.58
2019-04-23T05:29:01.943Z,39.58
2019-04-23T05:31:23.274Z,39.23
2019-04-23T05:34:02.991Z,39.32
2019-04-23T05:39:08.988Z,39.63
2019-04-23T05:41:38.544Z,39.33
2019-04-23T05:43:59.516Z,38.43
2019-04-23T05:46:33.770Z,39.02
2019-04-23T05:49:09.245Z,38.32
2019-04-23T05:54:09.210Z,38.12
2019-04-23T06:04:17.658Z,37.13
2019-04-23T06:06:54.098Z,36.87
2019-04-23T06:09:14.061Z,36.88
2019-04-23T06:22:10.665Z,35.17
2019-04-23T06:24:24.898Z,33.76
2019-04-23T06:31:50.959Z,32.96
2019-04-23T06:34:26.524Z,33.63
2019-04-23T06:36:51.234Z,33.63
2019-04-23T06:39:23.912Z,33.41
2019-04-23T06:41:59.215Z,33.66
2019-04-23T06:44:35.847Z,34.31
2019-04-23T06:47:03.568Z,31.83
2019-04-23T06:54:45.932Z,32.67
2019-04-23T06:57:14.621Z,32.49
2019-04-23T06:59:39.061Z,31.33
2019-04-23T07:02:11.835Z,31.44
2019-04-23T07:04:49.854Z,30.18
2019-04-23T07:07:37.774Z,30.18
2019-04-23T07:09:51.640Z,30.52
2019-04-23T07:12:41.139Z,30.58
2019-04-23T07:14:59.559Z,30.58
2019-04-23T07:17:24.944Z,30.58
2019-04-23T07:19:58.418Z,30.03
2019-04-23T07:22:46.778Z,27.97
2019-04-23T07:25:03.080Z,28.34
2019-04-23T07:27:43.084Z,27.54
2019-04-23T07:32:36.002Z,25.74
2019-04-23T07:37:45.119Z,29.38
2019-04-23T07:43:08.360Z,27.23
2019-04-23T07:46:10.405Z,25.04
2019-04-23T07:48:24.298Z,24.87
2019-04-23T07:50:58.992Z,24.87
2019-04-23T07:53:40.102Z,26.25
2019-04-23T07:56:08.710Z,26.33
2019-04-23T07:58:33.913Z,23.24
2019-04-23T08:01:11.250Z,23.42
2019-04-23T08:03:45.188Z,22.78
2019-04-23T08:06:21.692Z,23.09
2019-04-23T08:08:43.905Z,24.12
2019-04-23T08:16:32.993Z,19.71
2019-04-23T08:21:22.734Z,20.29
2019-04-23T08:24:16.978Z,18.37
2019-04-23T08:27:04.617Z,17.61
2019-04-23T08:29:30.940Z,16.20
2019-04-23T08:39:43.376Z,14.58
2019-04-23T08:45:10.732Z,14.19
2019-04-23T08:49:43.543Z,16.24
2019-04-23T08:52:14.252Z,15.61
2019-04-23T08:54:48.427Z,16.44
2019-04-23T08:57:27.344Z,15.90
2019-04-23T08:59:44.064Z,16.66
2019-04-23T09:04:51.569Z,16.23
2019-04-23T09:07:20.535Z,16.17
2019-04-23T09:09:51.020Z,15.24
2019-04-23T09:14:53.854Z,14.67
2019-04-23T09:17:21.178Z,14.50
2019-04-23T09:20:07.137Z,14.64
2019-04-23T09:22:34.685Z,14.64
2019-04-23T09:24:57.418Z,14.14
2019-04-23T09:27:31.202Z,12.44
2019-04-23T09:43:34.577Z,11.58
2019-04-23T09:46:18.014Z,14.33
2019-04-23T09:48:51.153Z,12.55
2019-04-23T09:51:17.352Z,12.65
2019-04-23T09:53:58.022Z,11.43
2019-04-23T09:56:19.865Z,10.91
2019-04-23T09:58:51.427Z,10.89
2019-04-23T10:01:25.934Z,10.89
2019-04-23T10:03:50.545Z,10.80
2019-04-23T10:06:14.541Z,13.00
2019-04-23T10:08:46.432Z,14.87
2019-04-23T10:11:11.318Z,12.20
2019-04-23T10:13:40.914Z,12.20
2019-04-23T10:16:12.302Z,11.80
2019-04-23T10:18:41.481Z,11.31
2019-04-23T10:21:11.192Z,11.92
2019-04-23T10:23:41.224Z,11.92
2019-04-23T10:26:10.391Z,12.20
2019-04-23T10:28:47.759Z,13.34
2019-04-23T10:31:16.868Z,13.95
2019-04-23T10:33:46.282Z,14.92
2019-04-23T10:36:19.438Z,14.23
2019-04-23T10:38:52.621Z,12.47
2019-04-23T10:41:18.233Z,12.47
2019-04-23T10:43:54.358Z,12.32
2019-04-23T10:47:12.284Z,12.55
2019-04-23T10:49:53.193Z,11.95
2019-04-23T10:52:26.110Z,11.95
2019-04-23T10:54:45.295Z,12.84
2019-04-23T11:04:57.607Z,12.30
2019-04-23T11:07:31.360Z,11.50
2019-04-23T11:10:04.440Z,10.96
2019-04-23T11:12:44.361Z,11.21
2019-04-23T11:15:32.438Z,11.45
2019-04-23T11:17:49.866Z,11.59
2019-04-23T11:20:30.386Z,11.94
2019-04-23T11:22:48.081Z,12.95
2019-04-23T11:28:05.687Z,12.03
2019-04-23T11:30:36.141Z,12.41
2019-04-23T11:38:39.410Z,10.74
2019-04-23T11:40:38.367Z,10.62
2019-04-23T11:43:14.826Z,9.06
2019-04-23T11:45:50.670Z,8.19
2019-04-23T11:51:21.825Z,7.12
2019-04-23T11:53:24.147Z,6.50
2019-04-23T11:55:58.972Z,6.50
2019-04-23T11:58:20.522Z,6.81
2019-04-23T12:01:34.777Z,7.34
2019-04-23T12:03:56.913Z,8.99
2019-04-23T12:06:31.290Z,9.04
2019-04-23T12:09:18.589Z,7.14
2019-04-23T12:14:40.526Z,7.09
2019-04-23T12:17:22.692Z,6.80
2019-04-23T12:22:18.056Z,6.26
2019-04-23T12:25:04.102Z,6.26
2019-04-23T12:40:15.667Z,7.72
2019-04-23T12:47:53.518Z,7.55
2019-04-23T12:50:41.868Z,8.66
2019-04-23T12:52:47.227Z,8.54
2019-04-23T12:55:23.294Z,8.18
2019-04-23T12:58:03.421Z,8.71
2019-04-23T13:00:20.836Z,8.65
2019-04-23T13:02:52.686Z,9.13
2019-04-23T13:05:31.873Z,9.54
2019-04-23T13:07:55.667Z,14.33
2019-04-23T13:10:28.297Z,16.08
2019-04-23T13:17:54.201Z,16.91
2019-04-23T13:20:27.984Z,18.07
2019-04-23T13:25:47.316Z,17.89
2019-04-23T13:33:27.960Z,19.08
2019-04-23T13:38:28.606Z,19.94
2019-04-23T13:48:20.370Z,19.45
2019-04-23T13:51:00.210Z,17.70
2019-04-23T13:56:05.083Z,16.58
2019-04-23T13:58:39.476Z,17.43
2019-04-23T14:03:42.868Z,16.72
2019-04-23T14:06:18.410Z,16.72
2019-04-23T14:11:21.580Z,16.86
2019-04-23T14:13:49.629Z,17.58
2019-04-23T14:18:56.187Z,17.71
2019-04-23T14:21:20.439Z,18.68
2019-04-23T14:24:03.420Z,18.68
2019-04-23T14:26:26.015Z,17.92
2019-04-23T14:30:05.190Z,18.45
2019-04-23T14:35:11.471Z,19.15
2019-04-23T14:37:40.952Z,19.35
2019-04-23T14:40:23.935Z,19.35
2019-04-23T14:42:56.170Z,18.72
2019-04-23T14:48:00.273Z,19.80
2019-04-23T14:50:32.087Z,20.29
2019-04-23T14:53:09.752Z,21.03
2019-04-23T14:58:10.447Z,20.70
2019-04-23T15:00:41.625Z,20.67
2019-04-23T15:03:08.453Z,21.07
2019-04-23T15:05:51.778Z,21.03
2019-04-23T15:08:15.626Z,21.27
2019-04-23T15:11:05.001Z,21.49
2019-04-23T15:13:18.766Z,21.33
2019-04-23T15:15:48.834Z,22.09
2019-04-23T15:18:35.345Z,22.34
2019-04-23T15:21:25.598Z,22.23
2019-04-23T15:23:51.529Z,22.23
2019-04-23T15:27:07.800Z,23.20
2019-04-23T15:28:13.168Z,23.32
2019-04-23T15:31:10.302Z,23.91
2019-04-23T15:33:49.142Z,23.80
2019-04-23T15:38:55.866Z,23.66
2019-04-23T15:41:15.264Z,23.59
2019-04-23T15:43:52.086Z,23.74
2019-04-23T15:46:21.047Z,23.59
2019-04-23T15:48:57.655Z,23.46
2019-04-23T15:51:20.141Z,24.07
2019-04-23T15:53:48.567Z,24.10
2019-04-23T15:56:33.010Z,24.04
2019-04-23T15:59:07.580Z,24.04
2019-04-23T16:03:27.500Z,24.62
2019-04-23T16:05:57.319Z,24.55
2019-04-23T16:11:41.182Z,24.05
2019-04-23T16:14:18.589Z,23.68
2019-04-23T16:16:39.005Z,23.68
2019-04-23T16:19:24.470Z,23.84
2019-04-23T16:31:49.536Z,22.77
2019-04-23T16:34:29.280Z,22.77
2019-04-23T16:37:02.154Z,22.18
2019-04-23T16:39:21.570Z,22.90
2019-04-23T16:42:02.247Z,22.74
2019-04-23T16:44:38.171Z,22.79
2019-04-23T16:49:58.353Z,23.35
2019-04-23T16:52:09.689Z,23.13
2019-04-23T16:54:41.628Z,23.24
2019-04-23T16:57:22.610Z,22.77
2019-04-23T16:59:48.661Z,22.55
2019-04-23T17:02:14.801Z,22.55
2019-04-23T17:07:08.459Z,22.89
2019-04-23T17:12:16.183Z,23.23
2019-04-23T17:14:48.045Z,23.99
2019-04-23T17:17:15.626Z,23.59
2019-04-23T17:19:47.192Z,23.67
2019-04-23T17:22:31.279Z,23.88
2019-04-23T17:24:54.083Z,23.87
2019-04-23T17:27:24.079Z,24.10
2019-04-23T17:29:58.869Z,24.01
2019-04-23T17:32:36.602Z,24.75
2019-04-23T17:35:17.588Z,24.75
2019-04-23T17:37:53.759Z,24.73
2019-04-23T17:40:17.462Z,24.90
2019-04-23T17:43:00.235Z,24.67
2019-04-23T17:45:32.372Z,25.08
2019-04-23T17:51:11.564Z,26.08
2019-04-23T17:53:29.731Z,26.52
2019-04-23T17:58:34.198Z,26.79
2019-04-23T18:03:57.339Z,27.67
2019-04-23T18:09:02.401Z,27.57
2019-04-23T18:11:35.769Z,28.13
2019-04-23T18:16:35.423Z,29.29
2019-04-23T18:24:54.176Z,30.10
2019-04-23T18:27:19.137Z,30.10
2019-04-23T18:29:56.324Z,30.26
2019-04-23T18:32:47.926Z,30.42
2019-04-23T18:37:37.599Z,30.76
2019-04-23T18:40:04.296Z,31.29
2019-04-23T18:45:20.265Z,31.44
2019-04-23T18:47:47.507Z,31.48
2019-04-23T18:50:24.703Z,31.25
2019-04-23T18:53:00.688Z,31.13
2019-04-23T18:55:29.506Z,31.70
2019-04-23T18:57:55.367Z,31.71
2019-04-23T19:00:24.863Z,32.10
2019-04-23T19:05:58.686Z,32.35
2019-04-23T19:11:40.338Z,32.71
2019-04-23T19:19:11.601Z,33.53
2019-04-23T19:22:07.136Z,33.53
2019-04-23T19:24:13.815Z,33.75
2019-04-23T19:27:03.328Z,33.55
2019-04-23T19:29:21.295Z,33.78
2019-04-23T19:31:55.370Z,33.71
2019-04-23T19:34:37.930Z,34.43
2019-04-23T19:36:59.426Z,34.43
2019-04-23T19:47:09.613Z,35.13
2019-04-23T19:49:36.896Z,34.76
2019-04-23T19:52:03.170Z,35.05
2019-04-23T19:54:52.622Z,35.11
2019-04-23T19:57:11.889Z,34.84
2019-04-23T19:59:45.035Z,35.30
2019-04-23T20:02:18.592Z,35.51
2019-04-23T20:05:00.967Z,35.86
2019-04-23T20:12:16.401Z,35.94
2019-04-23T20:14:48.911Z,35.70
2019-04-23T20:19:48.172Z,35.58
2019-04-23T20:22:25.592Z,35.43
2019-04-23T20:30:21.298Z,35.95
2019-04-23T20:44:43.301Z,36.28
2019-04-23T20:49:40.184Z,36.73
2019-04-23T20:54:58.429Z,37.26
2019-04-23T20:57:31.623Z,38.02
2019-04-23T21:00:01.637Z,38.02
2019-04-23T21:05:33.219Z,37.24
2019-04-23T21:08:22.351Z,37.15
2019-04-23T21:10:55.592Z,37.24
2019-04-23T21:13:28.614Z,37.64
2019-04-23T21:15:45.746Z,37.64
2019-04-23T21:20:56.150Z,38.27
2019-04-23T21:23:21.144Z,38.40
2019-04-23T21:25:50.670Z,38.49
2019-04-23T21:31:09.027Z,39.14
2019-04-23T21:36:43.411Z,39.99
2019-04-23T21:44:13.451Z,40.30
2019-04-23T21:49:18.072Z,40.59
2019-04-23T21:54:08.003Z,41.12
2019-04-23T21:56:42.975Z,41.24
2019-04-23T21:59:07.057Z,40.95
2019-04-23T22:01:55.784Z,41.00
2019-04-23T22:04:35.702Z,40.85
2019-04-23T22:06:53.626Z,41.48
2019-04-23T22:09:26.934Z,41.22
2019-04-23T22:12:03.490Z,41.78
2019-04-23T22:14:33.790Z,42.08
2019-04-23T22:17:02.829Z,41.28
2019-04-23T22:19:38.228Z,42.12
2019-04-23T22:22:04.001Z,42.12
2019-04-23T22:24:46.531Z,41.66
2019-04-23T22:27:12.751Z,43.42
2019-04-23T22:29:43.557Z,42.39
2019-04-23T22:32:02.817Z,41.86
2019-04-23T22:34:50.495Z,41.79
2019-04-23T22:39:54.189Z,43.29
2019-04-23T22:42:36.364Z,45.87
2019-04-23T22:47:13.890Z,46.19
2019-04-23T22:55:02.395Z,47.94
2019-04-23T22:57:55.996Z,48.77
2019-04-23T23:05:56.213Z,50.14
2019-04-23T23:08:45.880Z,50.71
2019-04-23T23:16:02.015Z,52.20
2019-04-23T23:18:22.938Z,52.50
2019-04-23T23:21:02.157Z,52.49
2019-04-23T23:23:21.298Z,52.49
2019-04-23T23:26:02.781Z,52.60
2019-04-23T23:28:38.069Z,52.59
2019-04-23T23:33:30.184Z,52.22
2019-04-23T23:38:47.707Z,54.29
2019-04-23T23:41:14.123Z,53.91
2019-04-23T23:43:31.648Z,54.51
2019-04-23T23:48:41.802Z,54.33
2019-04-23T23:51:17.052Z,55.02
2019-04-23T23:58:58.280Z,55.61
